sensor_id;sensor_type;location;lat;lon;timestamp;P1;durP1;ratioP1;P2;durP2;ratioP2
51981;SDS011;37998;53.416;6.730;2024-02-21T00:01:03;18.58;;;6.30;;
51981;SDS011;37998;53.416;6.730;2024-02-21T00:03:33;22.77;;;5.40;;
51981;SDS011;37998;53.416;6.730;2024-02-21T00:05:59;20.75;;;5.40;;
51981;SDS011;37998;53.416;6.730;2024-02-21T00:08:25;21.40;;;5.47;;
51981;SDS011;37998;53.416;6.730;2024-02-21T00:10:51;19.25;;;5.50;;
51981;SDS011;37998;53.416;6.730;2024-02-21T00:13:17;17.42;;;5.25;;
51981;SDS011;37998;53.416;6.730;2024-02-21T00:15:43;19.55;;;5.70;;
51981;SDS011;37998;53.416;6.730;2024-02-21T00:18:08;19.73;;;5.47;;
51981;SDS011;37998;53.416;6.730;2024-02-21T00:20:36;20.08;;;5.60;;
51981;SDS011;37998;53.416;6.730;2024-02-21T00:23:02;18.23;;;5.28;;
51981;SDS011;37998;53.416;6.730;2024-02-21T00:25:28;19.33;;;5.22;;
51981;SDS011;37998;53.416;6.730;2024-02-21T00:27:54;16.88;;;5.45;;
51981;SDS011;37998;53.416;6.730;2024-02-21T00:30:20;14.60;;;4.78;;
51981;SDS011;37998;53.416;6.730;2024-02-21T00:32:46;18.30;;;5.03;;
51981;SDS011;37998;53.416;6.730;2024-02-21T00:35:13;16.15;;;5.32;;
51981;SDS011;37998;53.416;6.730;2024-02-21T00:38:04;16.88;;;5.40;;
51981;SDS011;37998;53.416;6.730;2024-02-21T00:40:30;18.23;;;4.75;;
51981;SDS011;37998;53.416;6.730;2024-02-21T00:42:56;13.82;;;5.32;;
51981;SDS011;37998;53.416;6.730;2024-02-21T00:45:22;15.13;;;5.10;;
51981;SDS011;37998;53.416;6.730;2024-02-21T00:47:48;20.17;;;5.68;;
51981;SDS011;37998;53.416;6.730;2024-02-21T00:50:14;17.10;;;5.43;;
51981;SDS011;37998;53.416;6.730;2024-02-21T00:52:40;18.75;;;4.72;;
51981;SDS011;37998;53.416;6.730;2024-02-21T00:55:06;22.35;;;5.75;;
51981;SDS011;37998;53.416;6.730;2024-02-21T00:57:32;20.00;;;5.50;;
51981;SDS011;37998;53.416;6.730;2024-02-21T00:59:58;25.63;;;6.65;;
51981;SDS011;37998;53.416;6.730;2024-02-21T01:02:24;20.40;;;5.18;;
51981;SDS011;37998;53.416;6.730;2024-02-21T01:04:50;20.42;;;5.55;;
51981;SDS011;37998;53.416;6.730;2024-02-21T01:07:16;16.58;;;6.25;;
51981;SDS011;37998;53.416;6.730;2024-02-21T01:09:42;23.00;;;5.55;;
51981;SDS011;37998;53.416;6.730;2024-02-21T01:12:08;22.90;;;5.72;;
51981;SDS011;37998;53.416;6.730;2024-02-21T01:14:34;22.92;;;6.07;;
51981;SDS011;37998;53.416;6.730;2024-02-21T01:16:59;20.70;;;5.88;;
51981;SDS011;37998;53.416;6.730;2024-02-21T01:19:26;35.55;;;6.38;;
51981;SDS011;37998;53.416;6.730;2024-02-21T01:21:52;17.98;;;5.20;;
51981;SDS011;37998;53.416;6.730;2024-02-21T01:24:18;29.38;;;6.80;;
51981;SDS011;37998;53.416;6.730;2024-02-21T01:26:44;23.77;;;6.20;;
51981;SDS011;37998;53.416;6.730;2024-02-21T01:29:10;27.92;;;6.85;;
51981;SDS011;37998;53.416;6.730;2024-02-21T01:31:36;23.63;;;6.68;;
51981;SDS011;37998;53.416;6.730;2024-02-21T01:34:01;22.38;;;6.40;;
51981;SDS011;37998;53.416;6.730;2024-02-21T01:36:27;20.40;;;6.43;;
51981;SDS011;37998;53.416;6.730;2024-02-21T01:38:53;21.52;;;6.25;;
51981;SDS011;37998;53.416;6.730;2024-02-21T01:41:19;23.73;;;6.78;;
51981;SDS011;37998;53.416;6.730;2024-02-21T01:43:45;19.42;;;5.95;;
51981;SDS011;37998;53.416;6.730;2024-02-21T01:46:11;19.98;;;6.90;;
51981;SDS011;37998;53.416;6.730;2024-02-21T01:48:37;23.50;;;7.07;;
51981;SDS011;37998;53.416;6.730;2024-02-21T01:51:03;18.42;;;6.57;;
51981;SDS011;37998;53.416;6.730;2024-02-21T01:53:30;23.00;;;6.45;;
51981;SDS011;37998;53.416;6.730;2024-02-21T01:56:00;25.17;;;7.05;;
51981;SDS011;37998;53.416;6.730;2024-02-21T01:58:27;26.88;;;7.38;;
51981;SDS011;37998;53.416;6.730;2024-02-21T02:00:55;22.80;;;6.45;;
51981;SDS011;37998;53.416;6.730;2024-02-21T02:03:22;19.48;;;6.72;;
51981;SDS011;37998;53.416;6.730;2024-02-21T02:05:50;28.23;;;7.22;;
51981;SDS011;37998;53.416;6.730;2024-02-21T02:08:16;20.50;;;7.00;;
51981;SDS011;37998;53.416;6.730;2024-02-21T02:10:43;22.40;;;7.18;;
51981;SDS011;37998;53.416;6.730;2024-02-21T02:13:09;21.23;;;7.03;;
51981;SDS011;37998;53.416;6.730;2024-02-21T02:15:42;21.45;;;6.95;;
51981;SDS011;37998;53.416;6.730;2024-02-21T02:18:12;17.80;;;6.97;;
51981;SDS011;37998;53.416;6.730;2024-02-21T02:20:39;20.45;;;7.60;;
51981;SDS011;37998;53.416;6.730;2024-02-21T02:25:52;18.35;;;6.22;;
51981;SDS011;37998;53.416;6.730;2024-02-21T02:28:18;18.02;;;7.45;;
51981;SDS011;37998;53.416;6.730;2024-02-21T02:30:45;16.77;;;6.15;;
51981;SDS011;37998;53.416;6.730;2024-02-21T02:33:11;15.77;;;6.80;;
51981;SDS011;37998;53.416;6.730;2024-02-21T02:35:37;19.45;;;6.85;;
51981;SDS011;37998;53.416;6.730;2024-02-21T02:38:03;18.02;;;6.93;;
51981;SDS011;37998;53.416;6.730;2024-02-21T02:40:29;17.10;;;7.32;;
51981;SDS011;37998;53.416;6.730;2024-02-21T02:42:59;21.00;;;7.97;;
51981;SDS011;37998;53.416;6.730;2024-02-21T02:45:25;19.95;;;7.85;;
51981;SDS011;37998;53.416;6.730;2024-02-21T02:47:52;24.73;;;8.38;;
51981;SDS011;37998;53.416;6.730;2024-02-21T02:50:22;26.63;;;8.43;;
51981;SDS011;37998;53.416;6.730;2024-02-21T02:52:48;21.13;;;8.02;;
51981;SDS011;37998;53.416;6.730;2024-02-21T02:55:15;21.52;;;8.30;;
51981;SDS011;37998;53.416;6.730;2024-02-21T02:57:41;25.88;;;8.35;;
51981;SDS011;37998;53.416;6.730;2024-02-21T03:00:08;27.80;;;8.73;;
51981;SDS011;37998;53.416;6.730;2024-02-21T03:02:38;22.38;;;8.48;;
51981;SDS011;37998;53.416;6.730;2024-02-21T03:05:12;25.27;;;9.13;;
51981;SDS011;37998;53.416;6.730;2024-02-21T03:07:42;25.42;;;9.35;;
51981;SDS011;37998;53.416;6.730;2024-02-21T03:10:09;29.67;;;9.32;;
51981;SDS011;37998;53.416;6.730;2024-02-21T03:12:36;28.55;;;9.48;;
51981;SDS011;37998;53.416;6.730;2024-02-21T03:15:02;28.98;;;10.20;;
51981;SDS011;37998;53.416;6.730;2024-02-21T03:17:30;26.45;;;9.18;;
51981;SDS011;37998;53.416;6.730;2024-02-21T03:19:57;34.80;;;9.10;;
51981;SDS011;37998;53.416;6.730;2024-02-21T03:22:23;29.17;;;9.13;;
51981;SDS011;37998;53.416;6.730;2024-02-21T03:24:49;21.27;;;8.65;;
51981;SDS011;37998;53.416;6.730;2024-02-21T03:27:15;30.67;;;9.48;;
51981;SDS011;37998;53.416;6.730;2024-02-21T03:29:40;28.48;;;8.27;;
51981;SDS011;37998;53.416;6.730;2024-02-21T03:32:06;27.52;;;9.60;;
51981;SDS011;37998;53.416;6.730;2024-02-21T03:34:32;31.38;;;10.20;;
51981;SDS011;37998;53.416;6.730;2024-02-21T03:36:58;27.80;;;10.23;;
51981;SDS011;37998;53.416;6.730;2024-02-21T03:39:25;37.30;;;10.00;;
51981;SDS011;37998;53.416;6.730;2024-02-21T03:41:51;29.08;;;9.60;;
51981;SDS011;37998;53.416;6.730;2024-02-21T03:44:17;29.83;;;8.88;;
51981;SDS011;37998;53.416;6.730;2024-02-21T03:46:43;27.27;;;8.93;;
51981;SDS011;37998;53.416;6.730;2024-02-21T03:49:08;31.05;;;9.02;;
51981;SDS011;37998;53.416;6.730;2024-02-21T03:51:34;25.85;;;7.93;;
51981;SDS011;37998;53.416;6.730;2024-02-21T03:54:00;27.92;;;8.43;;
51981;SDS011;37998;53.416;6.730;2024-02-21T03:56:26;36.67;;;9.50;;
51981;SDS011;37998;53.416;6.730;2024-02-21T03:58:52;32.10;;;8.73;;
51981;SDS011;37998;53.416;6.730;2024-02-21T04:01:18;32.35;;;8.88;;
51981;SDS011;37998;53.416;6.730;2024-02-21T04:03:44;30.77;;;8.13;;
51981;SDS011;37998;53.416;6.730;2024-02-21T04:06:10;30.38;;;8.07;;
51981;SDS011;37998;53.416;6.730;2024-02-21T04:08:36;31.17;;;9.10;;
51981;SDS011;37998;53.416;6.730;2024-02-21T04:11:02;29.20;;;7.43;;
51981;SDS011;37998;53.416;6.730;2024-02-21T04:13:28;30.00;;;7.70;;
51981;SDS011;37998;53.416;6.730;2024-02-21T04:15:54;37.00;;;8.13;;
51981;SDS011;37998;53.416;6.730;2024-02-21T04:18:20;32.97;;;9.00;;
51981;SDS011;37998;53.416;6.730;2024-02-21T04:20:47;31.88;;;9.13;;
51981;SDS011;37998;53.416;6.730;2024-02-21T04:23:13;35.80;;;8.77;;
51981;SDS011;37998;53.416;6.730;2024-02-21T04:25:39;31.20;;;8.70;;
51981;SDS011;37998;53.416;6.730;2024-02-21T04:28:05;35.53;;;9.82;;
51981;SDS011;37998;53.416;6.730;2024-02-21T04:30:31;39.60;;;9.27;;
51981;SDS011;37998;53.416;6.730;2024-02-21T04:32:57;31.02;;;7.88;;
51981;SDS011;37998;53.416;6.730;2024-02-21T04:35:23;32.70;;;9.05;;
51981;SDS011;37998;53.416;6.730;2024-02-21T04:37:49;32.92;;;9.82;;
51981;SDS011;37998;53.416;6.730;2024-02-21T04:40:15;40.15;;;9.30;;
51981;SDS011;37998;53.416;6.730;2024-02-21T04:42:42;35.58;;;8.57;;
51981;SDS011;37998;53.416;6.730;2024-02-21T04:45:09;37.67;;;9.43;;
51981;SDS011;37998;53.416;6.730;2024-02-21T04:47:35;29.33;;;8.30;;
51981;SDS011;37998;53.416;6.730;2024-02-21T04:50:01;29.83;;;8.80;;
51981;SDS011;37998;53.416;6.730;2024-02-21T04:52:27;31.75;;;10.07;;
51981;SDS011;37998;53.416;6.730;2024-02-21T04:54:53;40.60;;;9.57;;
51981;SDS011;37998;53.416;6.730;2024-02-21T04:57:19;38.95;;;9.27;;
51981;SDS011;37998;53.416;6.730;2024-02-21T04:59:45;34.13;;;9.30;;
51981;SDS011;37998;53.416;6.730;2024-02-21T05:02:13;32.13;;;8.77;;
51981;SDS011;37998;53.416;6.730;2024-02-21T05:04:39;33.88;;;8.48;;
51981;SDS011;37998;53.416;6.730;2024-02-21T05:07:07;36.08;;;9.10;;
51981;SDS011;37998;53.416;6.730;2024-02-21T05:09:33;36.45;;;10.63;;
51981;SDS011;37998;53.416;6.730;2024-02-21T05:11:59;29.98;;;9.05;;
51981;SDS011;37998;53.416;6.730;2024-02-21T05:14:25;30.00;;;8.82;;
51981;SDS011;37998;53.416;6.730;2024-02-21T05:16:52;44.42;;;9.13;;
51981;SDS011;37998;53.416;6.730;2024-02-21T05:19:18;43.42;;;9.38;;
51981;SDS011;37998;53.416;6.730;2024-02-21T05:21:44;32.13;;;9.18;;
51981;SDS011;37998;53.416;6.730;2024-02-21T05:24:10;28.45;;;8.60;;
51981;SDS011;37998;53.416;6.730;2024-02-21T05:26:36;35.00;;;8.98;;
51981;SDS011;37998;53.416;6.730;2024-02-21T05:29:02;37.80;;;9.18;;
51981;SDS011;37998;53.416;6.730;2024-02-21T05:32:10;38.08;;;7.88;;
51981;SDS011;37998;53.416;6.730;2024-02-21T05:34:21;26.92;;;8.25;;
51981;SDS011;37998;53.416;6.730;2024-02-21T05:36:47;39.50;;;9.00;;
51981;SDS011;37998;53.416;6.730;2024-02-21T05:39:15;31.88;;;8.25;;
51981;SDS011;37998;53.416;6.730;2024-02-21T05:41:44;40.58;;;8.88;;
51981;SDS011;37998;53.416;6.730;2024-02-21T05:44:10;37.70;;;8.38;;
51981;SDS011;37998;53.416;6.730;2024-02-21T05:46:37;29.67;;;8.10;;
51981;SDS011;37998;53.416;6.730;2024-02-21T05:49:03;34.45;;;8.80;;
51981;SDS011;37998;53.416;6.730;2024-02-21T05:51:32;41.50;;;7.75;;
51981;SDS011;37998;53.416;6.730;2024-02-21T05:53:59;27.33;;;7.20;;
51981;SDS011;37998;53.416;6.730;2024-02-21T05:56:24;27.73;;;6.80;;
51981;SDS011;37998;53.416;6.730;2024-02-21T05:58:50;31.30;;;8.23;;
51981;SDS011;37998;53.416;6.730;2024-02-21T06:01:16;35.63;;;7.75;;
51981;SDS011;37998;53.416;6.730;2024-02-21T06:03:43;27.90;;;6.93;;
51981;SDS011;37998;53.416;6.730;2024-02-21T06:06:09;31.20;;;7.25;;
51981;SDS011;37998;53.416;6.730;2024-02-21T06:08:35;29.48;;;7.85;;
51981;SDS011;37998;53.416;6.730;2024-02-21T06:11:01;35.55;;;8.27;;
51981;SDS011;37998;53.416;6.730;2024-02-21T06:13:27;25.38;;;7.65;;
51981;SDS011;37998;53.416;6.730;2024-02-21T06:15:53;37.60;;;7.97;;
51981;SDS011;37998;53.416;6.730;2024-02-21T06:18:19;34.13;;;7.82;;
51981;SDS011;37998;53.416;6.730;2024-02-21T06:20:46;28.35;;;7.95;;
51981;SDS011;37998;53.416;6.730;2024-02-21T06:23:12;37.08;;;8.75;;
51981;SDS011;37998;53.416;6.730;2024-02-21T06:25:41;29.38;;;8.20;;
51981;SDS011;37998;53.416;6.730;2024-02-21T06:28:07;32.95;;;8.52;;
51981;SDS011;37998;53.416;6.730;2024-02-21T06:30:32;37.72;;;8.40;;
51981;SDS011;37998;53.416;6.730;2024-02-21T06:32:58;39.22;;;9.10;;
51981;SDS011;37998;53.416;6.730;2024-02-21T06:35:25;32.03;;;8.40;;
51981;SDS011;37998;53.416;6.730;2024-02-21T06:37:51;34.47;;;8.30;;
51981;SDS011;37998;53.416;6.730;2024-02-21T06:40:17;37.20;;;9.32;;
51981;SDS011;37998;53.416;6.730;2024-02-21T06:42:46;45.13;;;9.50;;
51981;SDS011;37998;53.416;6.730;2024-02-21T06:45:12;41.08;;;9.60;;
51981;SDS011;37998;53.416;6.730;2024-02-21T06:47:38;39.13;;;8.93;;
51981;SDS011;37998;53.416;6.730;2024-02-21T06:50:04;46.67;;;10.38;;
51981;SDS011;37998;53.416;6.730;2024-02-21T06:52:30;42.53;;;9.02;;
51981;SDS011;37998;53.416;6.730;2024-02-21T06:54:56;36.65;;;9.23;;
51981;SDS011;37998;53.416;6.730;2024-02-21T06:57:22;41.92;;;9.30;;
51981;SDS011;37998;53.416;6.730;2024-02-21T06:59:48;36.95;;;9.15;;
51981;SDS011;37998;53.416;6.730;2024-02-21T07:02:14;37.20;;;9.80;;
51981;SDS011;37998;53.416;6.730;2024-02-21T07:04:40;35.03;;;10.82;;
51981;SDS011;37998;53.416;6.730;2024-02-21T07:07:06;39.60;;;10.50;;
51981;SDS011;37998;53.416;6.730;2024-02-21T07:09:32;47.05;;;10.25;;
51981;SDS011;37998;53.416;6.730;2024-02-21T07:11:58;36.10;;;9.80;;
51981;SDS011;37998;53.416;6.730;2024-02-21T07:14:24;35.28;;;11.27;;
51981;SDS011;37998;53.416;6.730;2024-02-21T07:16:51;35.70;;;10.63;;
51981;SDS011;37998;53.416;6.730;2024-02-21T07:19:17;34.08;;;10.55;;
51981;SDS011;37998;53.416;6.730;2024-02-21T07:21:43;38.05;;;10.07;;
51981;SDS011;37998;53.416;6.730;2024-02-21T07:24:09;33.47;;;10.32;;
51981;SDS011;37998;53.416;6.730;2024-02-21T07:26:35;36.55;;;10.68;;
51981;SDS011;37998;53.416;6.730;2024-02-21T07:29:01;38.75;;;11.18;;
51981;SDS011;37998;53.416;6.730;2024-02-21T07:31:27;36.22;;;10.02;;
51981;SDS011;37998;53.416;6.730;2024-02-21T07:33:53;29.67;;;9.32;;
51981;SDS011;37998;53.416;6.730;2024-02-21T07:36:29;37.20;;;9.30;;
51981;SDS011;37998;53.416;6.730;2024-02-21T07:38:58;34.42;;;9.82;;
51981;SDS011;37998;53.416;6.730;2024-02-21T07:41:24;37.05;;;10.68;;
51981;SDS011;37998;53.416;6.730;2024-02-21T07:43:51;27.17;;;10.15;;
51981;SDS011;37998;53.416;6.730;2024-02-21T07:46:17;36.58;;;10.93;;
51981;SDS011;37998;53.416;6.730;2024-02-21T07:48:45;30.33;;;10.75;;
51981;SDS011;37998;53.416;6.730;2024-02-21T07:51:12;27.92;;;10.82;;
51981;SDS011;37998;53.416;6.730;2024-02-21T07:53:41;28.63;;;10.18;;
51981;SDS011;37998;53.416;6.730;2024-02-21T07:56:14;38.13;;;10.93;;
51981;SDS011;37998;53.416;6.730;2024-02-21T07:58:40;35.08;;;11.15;;
51981;SDS011;37998;53.416;6.730;2024-02-21T08:01:07;39.47;;;11.80;;
51981;SDS011;37998;53.416;6.730;2024-02-21T08:03:33;32.60;;;11.60;;
51981;SDS011;37998;53.416;6.730;2024-02-21T08:06:00;41.80;;;12.65;;
51981;SDS011;37998;53.416;6.730;2024-02-21T08:08:26;39.13;;;13.60;;
51981;SDS011;37998;53.416;6.730;2024-02-21T08:10:52;41.88;;;14.65;;
51981;SDS011;37998;53.416;6.730;2024-02-21T08:13:18;50.38;;;14.85;;
51981;SDS011;37998;53.416;6.730;2024-02-21T08:15:44;37.92;;;13.63;;
51981;SDS011;37998;53.416;6.730;2024-02-21T08:18:10;45.78;;;14.88;;
51981;SDS011;37998;53.416;6.730;2024-02-21T08:20:36;46.00;;;16.23;;
51981;SDS011;37998;53.416;6.730;2024-02-21T08:23:02;46.47;;;16.42;;
51981;SDS011;37998;53.416;6.730;2024-02-21T08:25:28;49.80;;;17.73;;
51981;SDS011;37998;53.416;6.730;2024-02-21T08:27:57;62.95;;;19.00;;
51981;SDS011;37998;53.416;6.730;2024-02-21T08:30:24;56.70;;;18.45;;
51981;SDS011;37998;53.416;6.730;2024-02-21T08:32:51;63.35;;;19.75;;
51981;SDS011;37998;53.416;6.730;2024-02-21T08:35:16;61.92;;;19.38;;
51981;SDS011;37998;53.416;6.730;2024-02-21T08:37:47;53.72;;;19.23;;
51981;SDS011;37998;53.416;6.730;2024-02-21T08:40:14;57.33;;;18.88;;
51981;SDS011;37998;53.416;6.730;2024-02-21T08:42:43;60.08;;;18.67;;
51981;SDS011;37998;53.416;6.730;2024-02-21T08:45:09;53.47;;;16.85;;
51981;SDS011;37998;53.416;6.730;2024-02-21T08:47:35;45.80;;;16.92;;
51981;SDS011;37998;53.416;6.730;2024-02-21T08:50:02;54.30;;;16.48;;
51981;SDS011;37998;53.416;6.730;2024-02-21T08:52:28;39.38;;;13.80;;
51981;SDS011;37998;53.416;6.730;2024-02-21T08:54:54;36.45;;;12.50;;
51981;SDS011;37998;53.416;6.730;2024-02-21T08:57:20;40.90;;;11.27;;
51981;SDS011;37998;53.416;6.730;2024-02-21T08:59:46;31.52;;;10.35;;
51981;SDS011;37998;53.416;6.730;2024-02-21T09:02:12;25.33;;;9.90;;
51981;SDS011;37998;53.416;6.730;2024-02-21T09:04:41;27.00;;;9.52;;
51981;SDS011;37998;53.416;6.730;2024-02-21T09:07:07;22.45;;;9.00;;
51981;SDS011;37998;53.416;6.730;2024-02-21T09:09:33;24.13;;;8.55;;
51981;SDS011;37998;53.416;6.730;2024-02-21T09:11:59;27.77;;;8.63;;
51981;SDS011;37998;53.416;6.730;2024-02-21T09:14:34;19.63;;;7.30;;
51981;SDS011;37998;53.416;6.730;2024-02-21T09:17:03;27.55;;;8.80;;
51981;SDS011;37998;53.416;6.730;2024-02-21T09:19:29;22.35;;;8.50;;
51981;SDS011;37998;53.416;6.730;2024-02-21T09:21:55;24.52;;;8.93;;
51981;SDS011;37998;53.416;6.730;2024-02-21T09:24:21;24.02;;;8.98;;
51981;SDS011;37998;53.416;6.730;2024-02-21T09:26:47;24.77;;;9.00;;
51981;SDS011;37998;53.416;6.730;2024-02-21T09:29:14;23.67;;;7.82;;
51981;SDS011;37998;53.416;6.730;2024-02-21T09:31:41;28.38;;;10.10;;
51981;SDS011;37998;53.416;6.730;2024-02-21T09:34:07;18.73;;;9.98;;
51981;SDS011;37998;53.416;6.730;2024-02-21T09:36:33;24.83;;;10.20;;
51981;SDS011;37998;53.416;6.730;2024-02-21T09:38:59;26.95;;;10.77;;
51981;SDS011;37998;53.416;6.730;2024-02-21T09:41:25;28.30;;;11.90;;
51981;SDS011;37998;53.416;6.730;2024-02-21T09:43:55;28.92;;;11.48;;
51981;SDS011;37998;53.416;6.730;2024-02-21T09:46:24;26.63;;;11.73;;
51981;SDS011;37998;53.416;6.730;2024-02-21T09:51:45;23.95;;;13.20;;
51981;SDS011;37998;53.416;6.730;2024-02-21T09:54:15;32.08;;;15.75;;
51981;SDS011;37998;53.416;6.730;2024-02-21T09:56:41;34.70;;;15.07;;
51981;SDS011;37998;53.416;6.730;2024-02-21T09:59:07;27.27;;;13.52;;
51981;SDS011;37998;53.416;6.730;2024-02-21T10:01:33;30.63;;;13.95;;
51981;SDS011;37998;53.416;6.730;2024-02-21T10:03:59;28.38;;;14.98;;
51981;SDS011;37998;53.416;6.730;2024-02-21T10:06:25;34.55;;;14.88;;
51981;SDS011;37998;53.416;6.730;2024-02-21T10:08:52;36.22;;;15.70;;
51981;SDS011;37998;53.416;6.730;2024-02-21T10:11:24;31.95;;;16.98;;
51981;SDS011;37998;53.416;6.730;2024-02-21T10:13:50;26.98;;;16.20;;
51981;SDS011;37998;53.416;6.730;2024-02-21T10:16:16;28.67;;;17.95;;
51981;SDS011;37998;53.416;6.730;2024-02-21T10:18:43;26.70;;;17.23;;
51981;SDS011;37998;53.416;6.730;2024-02-21T10:21:09;33.15;;;18.92;;
51981;SDS011;37998;53.416;6.730;2024-02-21T10:23:42;35.08;;;17.95;;
51981;SDS011;37998;53.416;6.730;2024-02-21T10:26:13;30.40;;;17.65;;
51981;SDS011;37998;53.416;6.730;2024-02-21T10:28:40;31.75;;;18.52;;
51981;SDS011;37998;53.416;6.730;2024-02-21T10:31:08;31.65;;;18.88;;
51981;SDS011;37998;53.416;6.730;2024-02-21T10:33:35;32.67;;;17.75;;
51981;SDS011;37998;53.416;6.730;2024-02-21T10:36:09;30.70;;;17.52;;
51981;SDS011;37998;53.416;6.730;2024-02-21T10:41:05;29.20;;;17.63;;
51981;SDS011;37998;53.416;6.730;2024-02-21T10:43:38;23.58;;;16.55;;
51981;SDS011;37998;53.416;6.730;2024-02-21T10:46:09;25.02;;;18.08;;
51981;SDS011;37998;53.416;6.730;2024-02-21T10:48:42;28.80;;;16.63;;
51981;SDS011;37998;53.416;6.730;2024-02-21T10:51:17;34.40;;;17.80;;
51981;SDS011;37998;53.416;6.730;2024-02-21T10:56:38;27.58;;;16.55;;
51981;SDS011;37998;53.416;6.730;2024-02-21T10:59:06;27.13;;;16.40;;
51981;SDS011;37998;53.416;6.730;2024-02-21T11:01:33;28.67;;;16.85;;
51981;SDS011;37998;53.416;6.730;2024-02-21T11:04:03;32.28;;;17.38;;
51981;SDS011;37998;53.416;6.730;2024-02-21T11:06:31;25.58;;;17.83;;
51981;SDS011;37998;53.416;6.730;2024-02-21T11:09:03;29.17;;;17.90;;
51981;SDS011;37998;53.416;6.730;2024-02-21T11:11:33;23.02;;;16.85;;
51981;SDS011;37998;53.416;6.730;2024-02-21T11:14:09;28.48;;;17.80;;
51981;SDS011;37998;53.416;6.730;2024-02-21T11:16:45;27.08;;;18.25;;
51981;SDS011;37998;53.416;6.730;2024-02-21T11:21:45;26.15;;;19.75;;
51981;SDS011;37998;53.416;6.730;2024-02-21T11:24:10;31.80;;;19.35;;
51981;SDS011;37998;53.416;6.730;2024-02-21T11:26:37;23.95;;;18.35;;
51981;SDS011;37998;53.416;6.730;2024-02-21T11:29:12;33.20;;;19.85;;
51981;SDS011;37998;53.416;6.730;2024-02-21T11:31:48;26.67;;;19.05;;
51981;SDS011;37998;53.416;6.730;2024-02-21T11:34:17;28.60;;;18.52;;
51981;SDS011;37998;53.416;6.730;2024-02-21T11:36:50;34.22;;;19.52;;
51981;SDS011;37998;53.416;6.730;2024-02-21T11:39:25;29.95;;;19.77;;
51981;SDS011;37998;53.416;6.730;2024-02-21T11:42:02;29.45;;;19.23;;
51981;SDS011;37998;53.416;6.730;2024-02-21T11:44:29;29.00;;;18.98;;
51981;SDS011;37998;53.416;6.730;2024-02-21T11:46:55;26.10;;;17.60;;
51981;SDS011;37998;53.416;6.730;2024-02-21T11:49:21;27.77;;;19.00;;
51981;SDS011;37998;53.416;6.730;2024-02-21T11:51:57;25.45;;;19.27;;
51981;SDS011;37998;53.416;6.730;2024-02-21T11:54:24;27.67;;;17.45;;
51981;SDS011;37998;53.416;6.730;2024-02-21T11:56:50;23.65;;;16.85;;
51981;SDS011;37998;53.416;6.730;2024-02-21T11:59:16;23.58;;;16.95;;
51981;SDS011;37998;53.416;6.730;2024-02-21T12:01:42;26.13;;;17.30;;
51981;SDS011;37998;53.416;6.730;2024-02-21T12:04:08;23.48;;;17.92;;
51981;SDS011;37998;53.416;6.730;2024-02-21T12:06:35;22.80;;;16.13;;
51981;SDS011;37998;53.416;6.730;2024-02-21T12:09:01;25.45;;;16.10;;
51981;SDS011;37998;53.416;6.730;2024-02-21T12:11:27;24.45;;;16.17;;
51981;SDS011;37998;53.416;6.730;2024-02-21T12:14:00;23.08;;;15.73;;
51981;SDS011;37998;53.416;6.730;2024-02-21T12:16:27;22.77;;;15.60;;
51981;SDS011;37998;53.416;6.730;2024-02-21T12:18:56;23.73;;;15.60;;
51981;SDS011;37998;53.416;6.730;2024-02-21T12:21:26;23.63;;;14.52;;
51981;SDS011;37998;53.416;6.730;2024-02-21T12:23:55;21.65;;;14.75;;
51981;SDS011;37998;53.416;6.730;2024-02-21T12:26:21;30.75;;;15.90;;
51981;SDS011;37998;53.416;6.730;2024-02-21T12:28:48;29.70;;;15.88;;
51981;SDS011;37998;53.416;6.730;2024-02-21T12:31:14;26.35;;;14.40;;
51981;SDS011;37998;53.416;6.730;2024-02-21T12:33:42;23.02;;;14.73;;
51981;SDS011;37998;53.416;6.730;2024-02-21T12:36:08;20.27;;;13.93;;
51981;SDS011;37998;53.416;6.730;2024-02-21T12:38:34;24.52;;;14.45;;
51981;SDS011;37998;53.416;6.730;2024-02-21T12:41:01;25.10;;;14.15;;
51981;SDS011;37998;53.416;6.730;2024-02-21T12:43:27;17.08;;;12.60;;
51981;SDS011;37998;53.416;6.730;2024-02-21T12:45:53;18.10;;;11.35;;
51981;SDS011;37998;53.416;6.730;2024-02-21T12:48:19;19.55;;;12.15;;
51981;SDS011;37998;53.416;6.730;2024-02-21T12:50:49;19.05;;;12.07;;
51981;SDS011;37998;53.416;6.730;2024-02-21T12:53:19;18.73;;;11.95;;
51981;SDS011;37998;53.416;6.730;2024-02-21T12:55:47;16.25;;;11.63;;
51981;SDS011;37998;53.416;6.730;2024-02-21T12:58:14;23.45;;;12.10;;
51981;SDS011;37998;53.416;6.730;2024-02-21T13:00:40;18.98;;;11.63;;
51981;SDS011;37998;53.416;6.730;2024-02-21T13:03:06;18.20;;;11.23;;
51981;SDS011;37998;53.416;6.730;2024-02-21T13:05:33;21.40;;;11.65;;
51981;SDS011;37998;53.416;6.730;2024-02-21T13:07:59;17.27;;;11.18;;
51981;SDS011;37998;53.416;6.730;2024-02-21T13:10:25;19.20;;;11.57;;
51981;SDS011;37998;53.416;6.730;2024-02-21T13:12:51;20.65;;;11.75;;
51981;SDS011;37998;53.416;6.730;2024-02-21T13:15:17;19.75;;;10.35;;
51981;SDS011;37998;53.416;6.730;2024-02-21T13:17:44;17.08;;;10.27;;
51981;SDS011;37998;53.416;6.730;2024-02-21T13:20:10;15.55;;;10.98;;
51981;SDS011;37998;53.416;6.730;2024-02-21T13:22:37;15.60;;;11.38;;
51981;SDS011;37998;53.416;6.730;2024-02-21T13:25:03;18.17;;;11.50;;
51981;SDS011;37998;53.416;6.730;2024-02-21T13:27:32;14.63;;;10.90;;
51981;SDS011;37998;53.416;6.730;2024-02-21T13:29:59;13.05;;;9.73;;
51981;SDS011;37998;53.416;6.730;2024-02-21T13:32:28;15.23;;;10.23;;
51981;SDS011;37998;53.416;6.730;2024-02-21T13:34:54;17.55;;;9.63;;
51981;SDS011;37998;53.416;6.730;2024-02-21T13:37:20;15.63;;;8.98;;
51981;SDS011;37998;53.416;6.730;2024-02-21T13:39:46;10.50;;;7.93;;
51981;SDS011;37998;53.416;6.730;2024-02-21T13:42:13;13.15;;;8.85;;
51981;SDS011;37998;53.416;6.730;2024-02-21T13:44:39;15.40;;;9.35;;
51981;SDS011;37998;53.416;6.730;2024-02-21T13:47:05;14.73;;;9.45;;
51981;SDS011;37998;53.416;6.730;2024-02-21T13:49:33;15.85;;;10.05;;
51981;SDS011;37998;53.416;6.730;2024-02-21T13:51:59;14.68;;;9.95;;
51981;SDS011;37998;53.416;6.730;2024-02-21T13:54:25;14.05;;;10.13;;
51981;SDS011;37998;53.416;6.730;2024-02-21T13:56:51;14.48;;;9.68;;
51981;SDS011;37998;53.416;6.730;2024-02-21T13:59:18;15.65;;;9.18;;
51981;SDS011;37998;53.416;6.730;2024-02-21T14:01:43;14.55;;;9.60;;
51981;SDS011;37998;53.416;6.730;2024-02-21T14:04:09;12.05;;;8.02;;
51981;SDS011;37998;53.416;6.730;2024-02-21T14:06:35;12.02;;;8.65;;
51981;SDS011;37998;53.416;6.730;2024-02-21T14:09:02;10.15;;;7.30;;
51981;SDS011;37998;53.416;6.730;2024-02-21T14:11:28;10.65;;;7.93;;
51981;SDS011;37998;53.416;6.730;2024-02-21T14:13:55;11.55;;;7.18;;
51981;SDS011;37998;53.416;6.730;2024-02-21T14:16:22;12.80;;;7.45;;
51981;SDS011;37998;53.416;6.730;2024-02-21T14:18:48;10.38;;;7.28;;
51981;SDS011;37998;53.416;6.730;2024-02-21T14:21:14;10.70;;;6.85;;
51981;SDS011;37998;53.416;6.730;2024-02-21T14:23:40;12.02;;;7.22;;
51981;SDS011;37998;53.416;6.730;2024-02-21T14:26:06;9.00;;;6.57;;
51981;SDS011;37998;53.416;6.730;2024-02-21T14:28:32;11.48;;;6.85;;
51981;SDS011;37998;53.416;6.730;2024-02-21T14:31:01;11.60;;;6.95;;
51981;SDS011;37998;53.416;6.730;2024-02-21T14:33:28;11.15;;;7.38;;
51981;SDS011;37998;53.416;6.730;2024-02-21T14:35:56;9.55;;;6.53;;
51981;SDS011;37998;53.416;6.730;2024-02-21T14:38:22;10.93;;;6.57;;
51981;SDS011;37998;53.416;6.730;2024-02-21T14:40:48;10.05;;;6.75;;